createdAt,value
2023-05-09T00:04:00.427Z,12.31
2023-05-09T00:14:00.602Z,12.26
2023-05-09T00:24:00.647Z,12.29
2023-05-09T00:34:00.965Z,12.04
2023-05-09T00:44:01.171Z,11.75
2023-05-09T00:54:01.256Z,11.70
2023-05-09T01:04:01.425Z,11.71
2023-05-09T01:14:01.617Z,11.89
2023-05-09T01:24:01.647Z,11.83
2023-05-09T01:34:01.974Z,11.74
2023-05-09T01:44:02.056Z,11.68
2023-05-09T01:54:02.325Z,11.82
2023-05-09T02:04:02.246Z,11.93
2023-05-09T02:14:02.550Z,11.78
2023-05-09T02:24:02.580Z,11.96
2023-05-09T02:34:02.768Z,12.16
2023-05-09T02:44:02.899Z,12.16
2023-05-09T02:54:03.231Z,12.06
2023-05-09T03:04:03.272Z,11.93
2023-05-09T03:14:03.566Z,11.83
2023-05-09T03:24:03.589Z,11.90
2023-05-09T03:34:04.181Z,11.93
2023-05-09T03:44:04.004Z,11.70
2023-05-09T03:54:04.328Z,11.90
2023-05-09T04:04:04.544Z,11.65
2023-05-09T04:14:04.596Z,11.87
2023-05-09T04:24:04.633Z,12.04
2023-05-09T04:34:04.927Z,12.11
2023-05-09T04:44:04.970Z,12.16
2023-05-09T04:54:05.502Z,12.41
2023-05-09T05:04:05.349Z,12.81
2023-05-09T05:14:05.662Z,13.25
2023-05-09T05:24:05.687Z,13.43
2023-05-09T05:34:06.051Z,13.73
2023-05-09T05:44:05.987Z,14.74
2023-05-09T05:54:06.377Z,15.13
2023-05-09T06:04:06.439Z,14.95
2023-05-09T06:14:06.782Z,15.13
2023-05-09T06:24:12.162Z,15.66
2023-05-09T06:34:07.951Z,15.56
2023-05-09T06:44:06.861Z,15.51
2023-05-09T06:54:07.181Z,15.51
2023-05-09T07:04:07.213Z,15.84
2023-05-09T07:14:07.558Z,16.30
2023-05-09T07:24:07.606Z,16.88
2023-05-09T07:34:07.951Z,17.76
2023-05-09T07:44:08.038Z,18.42
2023-05-09T07:54:08.339Z,18.99
2023-05-09T08:04:08.432Z,19.66
2023-05-09T08:14:08.787Z,19.60
2023-05-09T08:24:10.993Z,19.39
2023-05-09T08:34:08.934Z,18.91
2023-05-09T08:44:08.968Z,19.28
2023-05-09T08:54:09.399Z,20.27
2023-05-09T09:04:09.339Z,20.16
2023-05-09T09:14:09.952Z,21.36
2023-05-09T09:24:09.817Z,22.77
2023-05-09T09:34:09.860Z,20.74
2023-05-09T09:44:09.883Z,22.34
2023-05-09T09:54:10.226Z,21.67
2023-05-09T10:04:10.290Z,20.76
2023-05-09T10:14:10.627Z,24.97
2023-05-09T10:24:11.184Z,24.16
2023-05-09T10:34:10.925Z,24.57
2023-05-09T10:44:10.956Z,25.09
2023-05-09T10:54:11.524Z,25.10
2023-05-09T11:04:11.388Z,25.10
2023-05-09T11:14:11.715Z,24.26
2023-05-09T11:24:11.926Z,23.46
2023-05-09T11:34:11.886Z,24.83
2023-05-09T11:44:11.920Z,24.82
2023-05-09T11:54:12.253Z,24.95
2023-05-09T12:04:12.240Z,26.92
2023-05-09T12:14:12.530Z,27.42
2023-05-09T12:24:12.551Z,24.02
2023-05-09T12:34:13.052Z,26.47
2023-05-09T12:44:12.910Z,26.15
2023-05-09T12:54:13.204Z,26.22
2023-05-09T13:04:13.301Z,26.21
2023-05-09T13:14:13.574Z,24.76
2023-05-09T13:24:13.707Z,25.22
2023-05-09T13:34:13.885Z,25.91
2023-05-09T13:44:13.970Z,26.18
2023-05-09T13:54:14.376Z,25.38
2023-05-09T14:04:14.316Z,25.86
2023-05-09T14:14:14.513Z,25.72
2023-05-09T14:24:16.094Z,25.06
2023-05-09T14:34:14.891Z,25.07
2023-05-09T14:44:15.032Z,24.24
2023-05-09T14:54:15.293Z,24.95
2023-05-09T15:04:15.599Z,23.50
2023-05-09T15:14:15.562Z,23.82
2023-05-09T15:24:15.817Z,23.15
2023-05-09T15:34:15.904Z,23.90
2023-05-09T15:44:15.948Z,22.90
2023-05-09T15:54:16.238Z,22.93
2023-05-09T16:04:16.260Z,22.65
2023-05-09T16:14:16.624Z,21.72
2023-05-09T16:24:16.669Z,21.78
2023-05-09T16:34:16.972Z,21.54
2023-05-09T16:44:17.005Z,21.08
2023-05-09T16:54:17.331Z,20.76
2023-05-09T17:04:17.415Z,20.53
2023-05-09T17:14:17.620Z,20.25
2023-05-09T17:24:17.641Z,19.66
2023-05-09T17:34:18.014Z,17.84
2023-05-09T17:44:18.049Z,15.76
2023-05-09T17:54:18.579Z,15.48
2023-05-09T18:04:18.396Z,15.63
2023-05-09T18:14:18.825Z,15.57
2023-05-09T18:24:18.937Z,15.39
2023-05-09T18:34:18.990Z,14.98
2023-05-09T18:44:19.041Z,14.99
2023-05-09T18:54:19.365Z,15.05
2023-05-09T19:04:19.516Z,15.02
2023-05-09T19:14:19.699Z,14.93
2023-05-09T19:24:19.742Z,15.12
2023-05-09T19:34:19.958Z,15.12
2023-05-09T19:44:20.109Z,15.06
2023-05-09T19:54:20.701Z,14.99
2023-05-09T20:04:20.728Z,14.91
2023-05-09T20:14:20.745Z,14.54
2023-05-09T20:24:21.096Z,14.44
2023-05-09T20:34:21.069Z,14.35
2023-05-09T20:44:21.208Z,14.29
2023-05-09T20:54:21.640Z,14.29
2023-05-09T21:04:21.564Z,14.17
2023-05-09T21:14:21.892Z,13.92
2023-05-09T21:24:21.982Z,13.94
2023-05-09T21:34:22.180Z,13.76
2023-05-09T21:44:22.327Z,13.80
2023-05-09T21:54:22.565Z,13.70
2023-05-09T22:04:22.956Z,13.88
2023-05-09T22:14:23.334Z,13.76
2023-05-09T22:24:23.160Z,13.70
2023-05-09T22:34:23.492Z,13.71
2023-05-09T22:44:23.539Z,13.56
2023-05-09T22:54:24.334Z,13.61
2023-05-09T23:04:23.928Z,13.56
2023-05-09T23:14:24.154Z,13.58
2023-05-09T23:24:24.287Z,13.62
2023-05-09T23:34:24.486Z,13.63
2023-05-09T23:44:24.632Z,13.71
2023-05-09T23:54:24.864Z,13.69
